Terminal Aerodrome Forecast
Issued by NWS

Home | Current Version | Previous Version | Graphics & Text | Print | Product List | Glossary On
Versions: 1 2 3 4 5 6 7 8 9 10 11 12 13 14 15 16 17 18 19 20 21 22 23 24 25
890
FTUS43 KOAX 270821 AAA
TAFCDR
TAF AMD
KCDR 270821Z 2708/2806 VRB03KT P6SM OVC022
      TEMPO 2708/2710 1SM BR VV002
     FM271500 21007KT P6SM SCT030=

USA.gov is the U.S. government's official web portal to all federal, state and local government web resources and services.